sensor_id;sensor_type;location;lat;lon;timestamp;temperature;humidity
24158;DHT22;12316;50.904;4.200;2023-04-25T00:01:11;10.70;99.90
24158;DHT22;12316;50.904;4.200;2023-04-25T00:03:39;10.70;99.90
24158;DHT22;12316;50.904;4.200;2023-04-25T00:06:06;10.70;99.90
24158;DHT22;12316;50.904;4.200;2023-04-25T00:08:32;10.70;99.90
24158;DHT22;12316;50.904;4.200;2023-04-25T00:10:58;10.70;99.90
24158;DHT22;12316;50.904;4.200;2023-04-25T00:13:24;10.80;99.90
24158;DHT22;12316;50.904;4.200;2023-04-25T00:15:51;10.80;99.90
24158;DHT22;12316;50.904;4.200;2023-04-25T00:18:21;10.80;99.90
24158;DHT22;12316;50.904;4.200;2023-04-25T00:20:47;10.80;99.90
24158;DHT22;12316;50.904;4.200;2023-04-25T00:23:14;10.80;99.90
24158;DHT22;12316;50.904;4.200;2023-04-25T00:25:46;10.80;99.90
24158;DHT22;12316;50.904;4.200;2023-04-25T00:28:12;10.80;99.90
24158;DHT22;12316;50.904;4.200;2023-04-25T00:30:38;10.80;99.90
24158;DHT22;12316;50.904;4.200;2023-04-25T00:33:04;10.80;99.90
24158;DHT22;12316;50.904;4.200;2023-04-25T00:35:30;10.80;99.90
24158;DHT22;12316;50.904;4.200;2023-04-25T00:37:56;10.80;99.90
24158;DHT22;12316;50.904;4.200;2023-04-25T00:40:22;10.80;99.90
24158;DHT22;12316;50.904;4.200;2023-04-25T00:42:47;10.80;99.90
24158;DHT22;12316;50.904;4.200;2023-04-25T00:45:15;10.80;99.90
24158;DHT22;12316;50.904;4.200;2023-04-25T00:47:42;10.80;99.90
24158;DHT22;12316;50.904;4.200;2023-04-25T00:50:09;10.80;99.90
24158;DHT22;12316;50.904;4.200;2023-04-25T00:52:36;10.70;99.90
24158;DHT22;12316;50.904;4.200;2023-04-25T00:55:03;10.70;99.90
24158;DHT22;12316;50.904;4.200;2023-04-25T00:57:29;10.70;99.90
24158;DHT22;12316;50.904;4.200;2023-04-25T00:59:55;10.70;99.90
24158;DHT22;12316;50.904;4.200;2023-04-25T01:02:22;10.70;99.90
24158;DHT22;12316;50.904;4.200;2023-04-25T01:04:48;10.70;99.90
24158;DHT22;12316;50.904;4.200;2023-04-25T01:07:15;10.70;99.90
24158;DHT22;12316;50.904;4.200;2023-04-25T01:09:41;10.70;99.90
24158;DHT22;12316;50.904;4.200;2023-04-25T01:12:07;10.60;99.90
24158;DHT22;12316;50.904;4.200;2023-04-25T01:14:33;10.70;99.90
24158;DHT22;12316;50.904;4.200;2023-04-25T01:16:58;10.70;99.90
24158;DHT22;12316;50.904;4.200;2023-04-25T01:19:24;10.70;99.90
24158;DHT22;12316;50.904;4.200;2023-04-25T01:21:50;10.60;99.90
24158;DHT22;12316;50.904;4.200;2023-04-25T01:24:16;10.60;99.90
24158;DHT22;12316;50.904;4.200;2023-04-25T01:26:43;10.60;99.90
24158;DHT22;12316;50.904;4.200;2023-04-25T01:29:19;10.60;99.90
24158;DHT22;12316;50.904;4.200;2023-04-25T01:31:45;10.50;99.90
24158;DHT22;12316;50.904;4.200;2023-04-25T01:34:11;10.50;99.90
24158;DHT22;12316;50.904;4.200;2023-04-25T01:36:37;10.50;99.90
24158;DHT22;12316;50.904;4.200;2023-04-25T01:39:03;10.40;99.90
24158;DHT22;12316;50.904;4.200;2023-04-25T01:41:29;10.30;99.90
24158;DHT22;12316;50.904;4.200;2023-04-25T01:43:55;10.30;99.90
24158;DHT22;12316;50.904;4.200;2023-04-25T01:46:21;10.30;99.90
24158;DHT22;12316;50.904;4.200;2023-04-25T01:48:47;10.30;99.90
24158;DHT22;12316;50.904;4.200;2023-04-25T01:51:12;10.20;99.90
24158;DHT22;12316;50.904;4.200;2023-04-25T01:53:39;10.20;99.90
24158;DHT22;12316;50.904;4.200;2023-04-25T01:56:05;10.20;99.90
24158;DHT22;12316;50.904;4.200;2023-04-25T01:58:31;10.30;99.90
24158;DHT22;12316;50.904;4.200;2023-04-25T02:00:56;10.10;99.90
24158;DHT22;12316;50.904;4.200;2023-04-25T02:03:22;10.20;99.90
24158;DHT22;12316;50.904;4.200;2023-04-25T02:05:48;10.20;99.90
24158;DHT22;12316;50.904;4.200;2023-04-25T02:08:13;10.20;99.90
24158;DHT22;12316;50.904;4.200;2023-04-25T02:10:39;10.20;99.90
24158;DHT22;12316;50.904;4.200;2023-04-25T02:13:05;10.10;99.90
24158;DHT22;12316;50.904;4.200;2023-04-25T02:15:31;10.10;99.90
24158;DHT22;12316;50.904;4.200;2023-04-25T02:17:57;10.00;99.90
24158;DHT22;12316;50.904;4.200;2023-04-25T02:20:24;10.00;99.90
24158;DHT22;12316;50.904;4.200;2023-04-25T02:22:50;10.00;99.90
24158;DHT22;12316;50.904;4.200;2023-04-25T02:25:16;10.00;99.90
24158;DHT22;12316;50.904;4.200;2023-04-25T02:27:42;10.10;99.90
24158;DHT22;12316;50.904;4.200;2023-04-25T02:30:08;10.10;99.90
24158;DHT22;12316;50.904;4.200;2023-04-25T02:32:34;10.10;99.90
24158;DHT22;12316;50.904;4.200;2023-04-25T02:35:01;10.10;99.90
24158;DHT22;12316;50.904;4.200;2023-04-25T02:37:39;10.10;99.90
24158;DHT22;12316;50.904;4.200;2023-04-25T02:40:05;10.10;99.90
24158;DHT22;12316;50.904;4.200;2023-04-25T02:42:31;10.10;99.90
24158;DHT22;12316;50.904;4.200;2023-04-25T02:44:57;10.00;99.90
24158;DHT22;12316;50.904;4.200;2023-04-25T02:47:22;9.90;99.90
24158;DHT22;12316;50.904;4.200;2023-04-25T02:49:48;9.80;99.90
24158;DHT22;12316;50.904;4.200;2023-04-25T02:52:14;9.80;99.90
24158;DHT22;12316;50.904;4.200;2023-04-25T02:54:42;9.80;99.90
24158;DHT22;12316;50.904;4.200;2023-04-25T02:57:08;9.80;99.90
24158;DHT22;12316;50.904;4.200;2023-04-25T02:59:34;9.70;99.90
24158;DHT22;12316;50.904;4.200;2023-04-25T03:01:59;9.50;99.90
24158;DHT22;12316;50.904;4.200;2023-04-25T03:04:25;9.50;99.90
24158;DHT22;12316;50.904;4.200;2023-04-25T03:06:51;9.50;99.90
24158;DHT22;12316;50.904;4.200;2023-04-25T03:09:17;9.60;99.90
24158;DHT22;12316;50.904;4.200;2023-04-25T03:11:44;9.50;99.90
24158;DHT22;12316;50.904;4.200;2023-04-25T03:14:10;9.60;99.90
24158;DHT22;12316;50.904;4.200;2023-04-25T03:16:36;9.40;99.90
24158;DHT22;12316;50.904;4.200;2023-04-25T03:19:02;9.40;99.90
24158;DHT22;12316;50.904;4.200;2023-04-25T03:21:28;9.20;99.90
24158;DHT22;12316;50.904;4.200;2023-04-25T03:23:54;9.10;99.90
24158;DHT22;12316;50.904;4.200;2023-04-25T03:26:19;9.00;99.90
24158;DHT22;12316;50.904;4.200;2023-04-25T03:28:46;9.10;99.90
24158;DHT22;12316;50.904;4.200;2023-04-25T03:31:11;9.10;99.90
24158;DHT22;12316;50.904;4.200;2023-04-25T03:33:37;9.00;99.90
24158;DHT22;12316;50.904;4.200;2023-04-25T03:36:03;9.00;99.90
24158;DHT22;12316;50.904;4.200;2023-04-25T03:38:28;8.90;99.90
24158;DHT22;12316;50.904;4.200;2023-04-25T03:40:54;9.00;99.90
24158;DHT22;12316;50.904;4.200;2023-04-25T03:43:21;9.10;99.90
24158;DHT22;12316;50.904;4.200;2023-04-25T03:45:47;9.00;99.90
24158;DHT22;12316;50.904;4.200;2023-04-25T03:48:12;9.10;99.90
24158;DHT22;12316;50.904;4.200;2023-04-25T03:50:38;9.10;99.90
24158;DHT22;12316;50.904;4.200;2023-04-25T03:53:04;9.20;99.90
24158;DHT22;12316;50.904;4.200;2023-04-25T03:55:30;9.20;99.90
24158;DHT22;12316;50.904;4.200;2023-04-25T03:57:57;9.20;99.90
24158;DHT22;12316;50.904;4.200;2023-04-25T04:00:23;9.30;99.90
24158;DHT22;12316;50.904;4.200;2023-04-25T04:02:49;9.30;99.90
24158;DHT22;12316;50.904;4.200;2023-04-25T04:05:15;9.30;99.90
24158;DHT22;12316;50.904;4.200;2023-04-25T04:07:40;9.30;99.90
24158;DHT22;12316;50.904;4.200;2023-04-25T04:10:11;9.30;99.90
24158;DHT22;12316;50.904;4.200;2023-04-25T04:12:37;9.30;99.90
24158;DHT22;12316;50.904;4.200;2023-04-25T04:15:04;9.40;99.90
24158;DHT22;12316;50.904;4.200;2023-04-25T04:17:30;9.40;99.90
24158;DHT22;12316;50.904;4.200;2023-04-25T04:19:56;9.40;99.90
24158;DHT22;12316;50.904;4.200;2023-04-25T04:22:22;9.40;99.90
24158;DHT22;12316;50.904;4.200;2023-04-25T04:24:48;9.40;99.90
24158;DHT22;12316;50.904;4.200;2023-04-25T04:27:18;9.30;99.90
24158;DHT22;12316;50.904;4.200;2023-04-25T04:29:45;9.30;99.90
24158;DHT22;12316;50.904;4.200;2023-04-25T04:32:12;9.10;99.90
24158;DHT22;12316;50.904;4.200;2023-04-25T04:34:37;9.00;99.90
24158;DHT22;12316;50.904;4.200;2023-04-25T04:37:04;8.90;99.90
24158;DHT22;12316;50.904;4.200;2023-04-25T04:39:31;8.80;99.90
24158;DHT22;12316;50.904;4.200;2023-04-25T04:41:56;8.70;99.90
24158;DHT22;12316;50.904;4.200;2023-04-25T04:44:22;8.70;99.90
24158;DHT22;12316;50.904;4.200;2023-04-25T04:46:48;8.70;99.90
24158;DHT22;12316;50.904;4.200;2023-04-25T04:49:14;8.70;99.90
24158;DHT22;12316;50.904;4.200;2023-04-25T04:51:39;8.80;99.90
24158;DHT22;12316;50.904;4.200;2023-04-25T04:54:10;8.80;99.90
24158;DHT22;12316;50.904;4.200;2023-04-25T04:56:36;8.90;99.90
24158;DHT22;12316;50.904;4.200;2023-04-25T04:59:02;8.90;99.90
24158;DHT22;12316;50.904;4.200;2023-04-25T05:01:28;8.80;99.90
24158;DHT22;12316;50.904;4.200;2023-04-25T05:03:55;8.90;99.90
24158;DHT22;12316;50.904;4.200;2023-04-25T05:06:26;9.00;99.90
24158;DHT22;12316;50.904;4.200;2023-04-25T05:08:52;8.90;99.90
24158;DHT22;12316;50.904;4.200;2023-04-25T05:11:22;8.90;99.90
24158;DHT22;12316;50.904;4.200;2023-04-25T05:13:49;8.90;99.90
24158;DHT22;12316;50.904;4.200;2023-04-25T05:16:14;9.00;99.90
24158;DHT22;12316;50.904;4.200;2023-04-25T05:18:40;9.10;99.90
24158;DHT22;12316;50.904;4.200;2023-04-25T05:21:06;9.10;99.90
24158;DHT22;12316;50.904;4.200;2023-04-25T05:23:32;9.10;99.90
24158;DHT22;12316;50.904;4.200;2023-04-25T05:25:58;9.00;99.90
24158;DHT22;12316;50.904;4.200;2023-04-25T05:28:24;9.10;99.90
24158;DHT22;12316;50.904;4.200;2023-04-25T05:30:50;9.20;99.90
24158;DHT22;12316;50.904;4.200;2023-04-25T05:33:16;9.10;99.90
24158;DHT22;12316;50.904;4.200;2023-04-25T05:35:42;9.20;99.90
24158;DHT22;12316;50.904;4.200;2023-04-25T05:38:08;9.10;99.90
24158;DHT22;12316;50.904;4.200;2023-04-25T05:40:33;9.10;99.90
24158;DHT22;12316;50.904;4.200;2023-04-25T05:42:59;9.20;99.90
24158;DHT22;12316;50.904;4.200;2023-04-25T05:45:25;9.20;99.90
24158;DHT22;12316;50.904;4.200;2023-04-25T05:47:50;9.30;99.90
24158;DHT22;12316;50.904;4.200;2023-04-25T05:50:16;9.40;99.90
24158;DHT22;12316;50.904;4.200;2023-04-25T05:52:42;9.40;99.90
24158;DHT22;12316;50.904;4.200;2023-04-25T05:55:08;9.40;99.90
24158;DHT22;12316;50.904;4.200;2023-04-25T05:57:34;9.40;99.90
24158;DHT22;12316;50.904;4.200;2023-04-25T05:59:59;9.30;99.90
24158;DHT22;12316;50.904;4.200;2023-04-25T06:02:25;9.20;99.90
24158;DHT22;12316;50.904;4.200;2023-04-25T06:04:52;9.30;99.90
24158;DHT22;12316;50.904;4.200;2023-04-25T06:07:18;9.30;99.90
24158;DHT22;12316;50.904;4.200;2023-04-25T06:09:44;9.30;99.90
24158;DHT22;12316;50.904;4.200;2023-04-25T06:12:09;9.10;99.90
24158;DHT22;12316;50.904;4.200;2023-04-25T06:14:35;9.10;99.90
24158;DHT22;12316;50.904;4.200;2023-04-25T06:17:01;9.10;99.90
24158;DHT22;12316;50.904;4.200;2023-04-25T06:19:32;9.30;99.90
24158;DHT22;12316;50.904;4.200;2023-04-25T06:21:58;9.50;99.90
24158;DHT22;12316;50.904;4.200;2023-04-25T06:24:24;9.60;99.90
24158;DHT22;12316;50.904;4.200;2023-04-25T06:26:49;9.70;99.90
24158;DHT22;12316;50.904;4.200;2023-04-25T06:29:18;9.60;99.90
24158;DHT22;12316;50.904;4.200;2023-04-25T06:31:43;9.70;99.90
24158;DHT22;12316;50.904;4.200;2023-04-25T06:34:09;9.80;99.90
24158;DHT22;12316;50.904;4.200;2023-04-25T06:36:35;9.70;99.90
24158;DHT22;12316;50.904;4.200;2023-04-25T06:39:00;9.80;99.90
24158;DHT22;12316;50.904;4.200;2023-04-25T06:41:26;9.90;99.90
24158;DHT22;12316;50.904;4.200;2023-04-25T06:43:52;10.00;99.90
24158;DHT22;12316;50.904;4.200;2023-04-25T06:46:17;10.00;99.90
24158;DHT22;12316;50.904;4.200;2023-04-25T06:48:43;10.10;99.90
24158;DHT22;12316;50.904;4.200;2023-04-25T06:51:09;10.30;99.90
24158;DHT22;12316;50.904;4.200;2023-04-25T06:53:35;10.30;99.90
24158;DHT22;12316;50.904;4.200;2023-04-25T06:56:00;10.30;99.90
24158;DHT22;12316;50.904;4.200;2023-04-25T06:58:26;10.20;99.90
24158;DHT22;12316;50.904;4.200;2023-04-25T07:00:52;10.20;99.90
24158;DHT22;12316;50.904;4.200;2023-04-25T07:03:17;10.20;99.90
24158;DHT22;12316;50.904;4.200;2023-04-25T07:05:43;10.20;99.90
24158;DHT22;12316;50.904;4.200;2023-04-25T07:08:11;10.20;99.90
24158;DHT22;12316;50.904;4.200;2023-04-25T07:10:37;10.30;99.90
24158;DHT22;12316;50.904;4.200;2023-04-25T07:13:02;10.30;99.90
24158;DHT22;12316;50.904;4.200;2023-04-25T07:15:28;10.10;99.90
24158;DHT22;12316;50.904;4.200;2023-04-25T07:17:54;10.30;99.90
24158;DHT22;12316;50.904;4.200;2023-04-25T07:20:19;10.30;99.90
24158;DHT22;12316;50.904;4.200;2023-04-25T07:22:45;10.20;99.90
24158;DHT22;12316;50.904;4.200;2023-04-25T07:25:11;10.30;99.90
24158;DHT22;12316;50.904;4.200;2023-04-25T07:27:36;10.30;99.90
24158;DHT22;12316;50.904;4.200;2023-04-25T07:30:03;10.50;99.90
24158;DHT22;12316;50.904;4.200;2023-04-25T07:32:29;10.50;99.90
24158;DHT22;12316;50.904;4.200;2023-04-25T07:34:55;10.60;99.90
24158;DHT22;12316;50.904;4.200;2023-04-25T07:37:21;10.70;99.90
24158;DHT22;12316;50.904;4.200;2023-04-25T07:39:47;10.70;99.90
24158;DHT22;12316;50.904;4.200;2023-04-25T07:42:13;10.70;99.90
24158;DHT22;12316;50.904;4.200;2023-04-25T07:44:38;10.80;99.90
24158;DHT22;12316;50.904;4.200;2023-04-25T07:47:06;10.90;99.90
24158;DHT22;12316;50.904;4.200;2023-04-25T07:49:33;10.90;99.90
24158;DHT22;12316;50.904;4.200;2023-04-25T07:52:00;11.10;99.90
24158;DHT22;12316;50.904;4.200;2023-04-25T07:54:25;11.20;99.90
24158;DHT22;12316;50.904;4.200;2023-04-25T07:56:51;11.40;99.90
24158;DHT22;12316;50.904;4.200;2023-04-25T07:59:17;11.50;99.90
24158;DHT22;12316;50.904;4.200;2023-04-25T08:01:42;11.40;99.90
24158;DHT22;12316;50.904;4.200;2023-04-25T08:04:08;11.40;99.90
24158;DHT22;12316;50.904;4.200;2023-04-25T08:06:34;11.20;99.90
24158;DHT22;12316;50.904;4.200;2023-04-25T08:09:00;11.20;99.90
24158;DHT22;12316;50.904;4.200;2023-04-25T08:11:25;11.30;99.90
24158;DHT22;12316;50.904;4.200;2023-04-25T08:13:51;11.20;99.90
24158;DHT22;12316;50.904;4.200;2023-04-25T08:16:17;11.10;99.90
24158;DHT22;12316;50.904;4.200;2023-04-25T08:18:42;11.10;99.90
24158;DHT22;12316;50.904;4.200;2023-04-25T08:21:08;11.20;99.90
24158;DHT22;12316;50.904;4.200;2023-04-25T08:23:36;11.30;99.90
24158;DHT22;12316;50.904;4.200;2023-04-25T08:26:02;11.30;99.90
24158;DHT22;12316;50.904;4.200;2023-04-25T08:28:28;11.20;99.90
24158;DHT22;12316;50.904;4.200;2023-04-25T08:30:54;11.10;99.90
24158;DHT22;12316;50.904;4.200;2023-04-25T08:33:20;11.20;99.90
24158;DHT22;12316;50.904;4.200;2023-04-25T08:35:45;11.40;99.90
24158;DHT22;12316;50.904;4.200;2023-04-25T08:38:11;11.60;99.90
24158;DHT22;12316;50.904;4.200;2023-04-25T08:40:38;11.70;99.90
24158;DHT22;12316;50.904;4.200;2023-04-25T08:43:06;11.80;99.90
24158;DHT22;12316;50.904;4.200;2023-04-25T08:45:40;11.70;99.90
24158;DHT22;12316;50.904;4.200;2023-04-25T08:48:11;11.70;99.90
24158;DHT22;12316;50.904;4.200;2023-04-25T08:50:48;11.60;99.90
24158;DHT22;12316;50.904;4.200;2023-04-25T08:53:16;11.70;99.90
24158;DHT22;12316;50.904;4.200;2023-04-25T08:55:45;11.70;99.90
24158;DHT22;12316;50.904;4.200;2023-04-25T08:58:11;11.80;99.90
24158;DHT22;12316;50.904;4.200;2023-04-25T09:00:37;11.60;99.90
24158;DHT22;12316;50.904;4.200;2023-04-25T09:03:03;11.30;99.90
24158;DHT22;12316;50.904;4.200;2023-04-25T09:05:29;11.30;99.90
24158;DHT22;12316;50.904;4.200;2023-04-25T09:07:55;11.10;99.90
24158;DHT22;12316;50.904;4.200;2023-04-25T09:10:22;11.00;99.90
24158;DHT22;12316;50.904;4.200;2023-04-25T09:13:08;10.70;99.90
24158;DHT22;12316;50.904;4.200;2023-04-25T09:15:55;10.70;99.90
24158;DHT22;12316;50.904;4.200;2023-04-25T09:20:48;11.00;99.90
24158;DHT22;12316;50.904;4.200;2023-04-25T09:23:14;11.00;99.90
24158;DHT22;12316;50.904;4.200;2023-04-25T09:25:40;11.00;99.90
24158;DHT22;12316;50.904;4.200;2023-04-25T09:28:08;10.90;99.90
24158;DHT22;12316;50.904;4.200;2023-04-25T09:30:35;11.10;99.90
24158;DHT22;12316;50.904;4.200;2023-04-25T09:33:05;11.30;99.90
24158;DHT22;12316;50.904;4.200;2023-04-25T09:35:36;11.30;99.90
24158;DHT22;12316;50.904;4.200;2023-04-25T09:38:10;11.20;99.90
24158;DHT22;12316;50.904;4.200;2023-04-25T09:40:45;11.20;99.90
24158;DHT22;12316;50.904;4.200;2023-04-25T09:45:47;11.10;99.90
24158;DHT22;12316;50.904;4.200;2023-04-25T09:48:20;11.30;99.90
24158;DHT22;12316;50.904;4.200;2023-04-25T09:51:04;11.30;99.90
24158;DHT22;12316;50.904;4.200;2023-04-25T09:53:32;11.40;99.90
24158;DHT22;12316;50.904;4.200;2023-04-25T09:55:59;11.60;99.90
24158;DHT22;12316;50.904;4.200;2023-04-25T09:58:25;11.70;99.90
24158;DHT22;12316;50.904;4.200;2023-04-25T10:00:59;11.90;99.90
24158;DHT22;12316;50.904;4.200;2023-04-25T10:03:25;12.00;99.90
24158;DHT22;12316;50.904;4.200;2023-04-25T10:05:52;12.10;99.90
24158;DHT22;12316;50.904;4.200;2023-04-25T10:08:20;12.30;99.90
24158;DHT22;12316;50.904;4.200;2023-04-25T10:10:46;12.40;99.60
24158;DHT22;12316;50.904;4.200;2023-04-25T10:13:14;12.70;99.70
24158;DHT22;12316;50.904;4.200;2023-04-25T10:15:41;12.70;99.30
24158;DHT22;12316;50.904;4.200;2023-04-25T10:18:07;12.90;99.90
24158;DHT22;12316;50.904;4.200;2023-04-25T10:20:33;12.90;98.70
24158;DHT22;12316;50.904;4.200;2023-04-25T10:23:13;12.70;99.20
24158;DHT22;12316;50.904;4.200;2023-04-25T10:25:41;12.50;98.70
24158;DHT22;12316;50.904;4.200;2023-04-25T10:28:07;12.10;99.10
24158;DHT22;12316;50.904;4.200;2023-04-25T10:30:32;12.20;99.40
24158;DHT22;12316;50.904;4.200;2023-04-25T10:32:59;11.60;99.90
24158;DHT22;12316;50.904;4.200;2023-04-25T10:35:29;11.00;99.90
24158;DHT22;12316;50.904;4.200;2023-04-25T10:38:19;10.40;99.90
24158;DHT22;12316;50.904;4.200;2023-04-25T10:41:04;10.00;99.90
24158;DHT22;12316;50.904;4.200;2023-04-25T10:45:56;9.50;99.90
24158;DHT22;12316;50.904;4.200;2023-04-25T10:48:29;9.40;99.90
24158;DHT22;12316;50.904;4.200;2023-04-25T10:51:08;9.40;99.90
24158;DHT22;12316;50.904;4.200;2023-04-25T10:53:34;9.50;99.90
24158;DHT22;12316;50.904;4.200;2023-04-25T10:56:00;9.80;99.90
24158;DHT22;12316;50.904;4.200;2023-04-25T10:58:26;9.90;99.90
24158;DHT22;12316;50.904;4.200;2023-04-25T11:00:51;10.00;99.90
24158;DHT22;12316;50.904;4.200;2023-04-25T11:03:17;10.20;99.90
24158;DHT22;12316;50.904;4.200;2023-04-25T11:05:47;10.40;99.90
24158;DHT22;12316;50.904;4.200;2023-04-25T11:08:26;10.50;99.90
24158;DHT22;12316;50.904;4.200;2023-04-25T11:10:59;10.80;99.90
24158;DHT22;12316;50.904;4.200;2023-04-25T11:13:29;10.80;99.90
24158;DHT22;12316;50.904;4.200;2023-04-25T11:15:55;10.90;99.90
24158;DHT22;12316;50.904;4.200;2023-04-25T11:18:21;10.90;99.90
24158;DHT22;12316;50.904;4.200;2023-04-25T11:20:48;11.00;99.90
24158;DHT22;12316;50.904;4.200;2023-04-25T11:23:15;11.00;99.90
24158;DHT22;12316;50.904;4.200;2023-04-25T11:25:41;10.80;99.90
24158;DHT22;12316;50.904;4.200;2023-04-25T11:28:07;10.80;99.90
24158;DHT22;12316;50.904;4.200;2023-04-25T11:30:33;11.00;99.90
24158;DHT22;12316;50.904;4.200;2023-04-25T11:32:58;11.20;99.90
24158;DHT22;12316;50.904;4.200;2023-04-25T11:35:25;11.30;99.90
24158;DHT22;12316;50.904;4.200;2023-04-25T11:37:51;11.50;99.90
24158;DHT22;12316;50.904;4.200;2023-04-25T11:40:17;11.60;99.90
24158;DHT22;12316;50.904;4.200;2023-04-25T11:42:47;11.70;99.90
24158;DHT22;12316;50.904;4.200;2023-04-25T11:45:13;11.90;99.90
24158;DHT22;12316;50.904;4.200;2023-04-25T11:47:40;12.10;99.90
24158;DHT22;12316;50.904;4.200;2023-04-25T11:50:07;12.40;99.90
24158;DHT22;12316;50.904;4.200;2023-04-25T11:55:05;12.50;99.90
24158;DHT22;12316;50.904;4.200;2023-04-25T11:57:32;12.40;99.80
24158;DHT22;12316;50.904;4.200;2023-04-25T12:00:09;12.30;99.10
24158;DHT22;12316;50.904;4.200;2023-04-25T12:02:36;12.40;99.90
24158;DHT22;12316;50.904;4.200;2023-04-25T12:05:02;12.30;99.90
24158;DHT22;12316;50.904;4.200;2023-04-25T12:07:31;12.10;99.90
24158;DHT22;12316;50.904;4.200;2023-04-25T12:09:57;12.10;99.90
24158;DHT22;12316;50.904;4.200;2023-04-25T12:12:27;12.40;99.90
24158;DHT22;12316;50.904;4.200;2023-04-25T12:14:53;12.70;99.90
24158;DHT22;12316;50.904;4.200;2023-04-25T12:17:20;12.70;98.80
24158;DHT22;12316;50.904;4.200;2023-04-25T12:19:47;12.90;97.80
24158;DHT22;12316;50.904;4.200;2023-04-25T12:22:21;12.60;96.40
24158;DHT22;12316;50.904;4.200;2023-04-25T12:24:47;12.80;97.90
24158;DHT22;12316;50.904;4.200;2023-04-25T12:27:15;12.90;97.50
24158;DHT22;12316;50.904;4.200;2023-04-25T12:29:54;12.80;97.10
24158;DHT22;12316;50.904;4.200;2023-04-25T12:32:21;13.00;97.60
24158;DHT22;12316;50.904;4.200;2023-04-25T12:34:46;13.40;97.30
24158;DHT22;12316;50.904;4.200;2023-04-25T12:37:12;13.70;97.20
24158;DHT22;12316;50.904;4.200;2023-04-25T12:39:38;14.20;96.70
24158;DHT22;12316;50.904;4.200;2023-04-25T12:42:04;13.90;95.70
24158;DHT22;12316;50.904;4.200;2023-04-25T12:44:33;13.90;96.50
24158;DHT22;12316;50.904;4.200;2023-04-25T12:46:59;13.60;96.70
24158;DHT22;12316;50.904;4.200;2023-04-25T12:49:25;13.10;97.20
24158;DHT22;12316;50.904;4.200;2023-04-25T12:51:50;12.80;97.30
24158;DHT22;12316;50.904;4.200;2023-04-25T12:54:17;12.40;97.70
24158;DHT22;12316;50.904;4.200;2023-04-25T12:56:42;12.50;97.50
24158;DHT22;12316;50.904;4.200;2023-04-25T12:59:08;12.70;96.10
24158;DHT22;12316;50.904;4.200;2023-04-25T13:01:35;12.50;95.20
24158;DHT22;12316;50.904;4.200;2023-04-25T13:04:00;12.30;94.70
24158;DHT22;12316;50.904;4.200;2023-04-25T13:06:26;12.20;94.20
24158;DHT22;12316;50.904;4.200;2023-04-25T13:08:52;12.10;94.00
24158;DHT22;12316;50.904;4.200;2023-04-25T13:11:18;12.20;94.70
24158;DHT22;12316;50.904;4.200;2023-04-25T13:13:44;12.10;95.00
24158;DHT22;12316;50.904;4.200;2023-04-25T13:16:10;12.20;95.10
24158;DHT22;12316;50.904;4.200;2023-04-25T13:18:36;12.40;95.90
24158;DHT22;12316;50.904;4.200;2023-04-25T13:21:02;12.60;95.90
24158;DHT22;12316;50.904;4.200;2023-04-25T13:23:29;12.70;95.50
24158;DHT22;12316;50.904;4.200;2023-04-25T13:25:56;12.90;95.70
24158;DHT22;12316;50.904;4.200;2023-04-25T13:28:26;13.30;94.90
24158;DHT22;12316;50.904;4.200;2023-04-25T13:30:52;13.60;95.50
24158;DHT22;12316;50.904;4.200;2023-04-25T13:33:18;13.60;94.50
24158;DHT22;12316;50.904;4.200;2023-04-25T13:35:44;13.40;96.00
24158;DHT22;12316;50.904;4.200;2023-04-25T13:38:12;13.10;96.60
24158;DHT22;12316;50.904;4.200;2023-04-25T13:40:38;13.10;96.90
24158;DHT22;12316;50.904;4.200;2023-04-25T13:43:04;13.10;96.50
24158;DHT22;12316;50.904;4.200;2023-04-25T13:45:31;13.10;96.40
24158;DHT22;12316;50.904;4.200;2023-04-25T13:47:57;12.80;97.10
24158;DHT22;12316;50.904;4.200;2023-04-25T13:50:23;12.80;97.60
24158;DHT22;12316;50.904;4.200;2023-04-25T13:52:48;12.80;97.10
24158;DHT22;12316;50.904;4.200;2023-04-25T13:55:14;12.90;97.60
24158;DHT22;12316;50.904;4.200;2023-04-25T13:57:40;12.90;97.40
24158;DHT22;12316;50.904;4.200;2023-04-25T14:00:07;13.00;97.20
24158;DHT22;12316;50.904;4.200;2023-04-25T14:02:35;13.00;96.60
24158;DHT22;12316;50.904;4.200;2023-04-25T14:05:01;13.00;96.30
24158;DHT22;12316;50.904;4.200;2023-04-25T14:07:27;13.10;96.80
24158;DHT22;12316;50.904;4.200;2023-04-25T14:09:53;13.20;96.40
24158;DHT22;12316;50.904;4.200;2023-04-25T14:12:18;13.30;96.40
24158;DHT22;12316;50.904;4.200;2023-04-25T14:14:44;13.50;96.90
24158;DHT22;12316;50.904;4.200;2023-04-25T14:17:10;13.80;96.90
24158;DHT22;12316;50.904;4.200;2023-04-25T14:19:36;13.60;96.30
24158;DHT22;12316;50.904;4.200;2023-04-25T14:22:03;13.60;96.70
24158;DHT22;12316;50.904;4.200;2023-04-25T14:24:29;13.60;96.00
24158;DHT22;12316;50.904;4.200;2023-04-25T14:26:55;13.80;96.40
24158;DHT22;12316;50.904;4.200;2023-04-25T14:29:21;13.80;95.90
24158;DHT22;12316;50.904;4.200;2023-04-25T14:31:47;13.70;95.30
24158;DHT22;12316;50.904;4.200;2023-04-25T14:34:13;13.60;95.50
24158;DHT22;12316;50.904;4.200;2023-04-25T14:36:38;13.30;95.90
24158;DHT22;12316;50.904;4.200;2023-04-25T14:39:04;13.00;95.90
24158;DHT22;12316;50.904;4.200;2023-04-25T14:41:32;13.20;96.60
24158;DHT22;12316;50.904;4.200;2023-04-25T14:43:58;13.30;95.70
24158;DHT22;12316;50.904;4.200;2023-04-25T14:46:24;13.20;95.40
24158;DHT22;12316;50.904;4.200;2023-04-25T14:48:50;13.00;95.20
24158;DHT22;12316;50.904;4.200;2023-04-25T14:51:16;12.70;95.40
24158;DHT22;12316;50.904;4.200;2023-04-25T14:53:41;12.70;95.40
24158;DHT22;12316;50.904;4.200;2023-04-25T14:56:07;12.50;94.70
24158;DHT22;12316;50.904;4.200;2023-04-25T14:58:34;12.50;94.60
24158;DHT22;12316;50.904;4.200;2023-04-25T15:01:00;12.40;94.30
24158;DHT22;12316;50.904;4.200;2023-04-25T15:03:26;12.40;94.70
24158;DHT22;12316;50.904;4.200;2023-04-25T15:05:53;12.30;95.00
24158;DHT22;12316;50.904;4.200;2023-04-25T15:08:20;12.40;95.00
24158;DHT22;12316;50.904;4.200;2023-04-25T15:10:46;12.50;94.90
24158;DHT22;12316;50.904;4.200;2023-04-25T15:13:12;12.80;95.30
24158;DHT22;12316;50.904;4.200;2023-04-25T15:15:38;13.00;94.70
24158;DHT22;12316;50.904;4.200;2023-04-25T15:18:04;13.00;94.60
24158;DHT22;12316;50.904;4.200;2023-04-25T15:20:30;12.90;94.70
24158;DHT22;12316;50.904;4.200;2023-04-25T15:22:56;12.90;94.80
24158;DHT22;12316;50.904;4.200;2023-04-25T15:25:22;13.10;95.90
24158;DHT22;12316;50.904;4.200;2023-04-25T15:27:47;13.10;95.40
24158;DHT22;12316;50.904;4.200;2023-04-25T15:30:17;13.00;94.80
24158;DHT22;12316;50.904;4.200;2023-04-25T15:32:45;13.00;94.60
24158;DHT22;12316;50.904;4.200;2023-04-25T15:35:12;13.00;95.40
24158;DHT22;12316;50.904;4.200;2023-04-25T15:37:38;13.30;96.10
24158;DHT22;12316;50.904;4.200;2023-04-25T15:40:24;13.40;95.00
24158;DHT22;12316;50.904;4.200;2023-04-25T15:42:51;13.40;94.30